sensor_id;sensor_type;location;lat;lon;timestamp;pressure;altitude;pressure_sealevel;temperature;humidity
19594;BME280;9944;48.240;16.478;2023-04-05T00:00:22;100450.28;;;-0.31;50.46
19594;BME280;9944;48.240;16.478;2023-04-05T00:04:25;100445.69;;;-0.37;50.40
19594;BME280;9944;48.240;16.478;2023-04-05T00:08:31;100443.91;;;-0.38;50.34
19594;BME280;9944;48.240;16.478;2023-04-05T00:12:34;100442.84;;;-0.41;50.38
19594;BME280;9944;48.240;16.478;2023-04-05T00:16:37;100437.41;;;-0.46;50.54
19594;BME280;9944;48.240;16.478;2023-04-05T00:20:40;100433.88;;;-0.48;50.54
19594;BME280;9944;48.240;16.478;2023-04-05T00:24:45;100429.44;;;-0.51;50.47
19594;BME280;9944;48.240;16.478;2023-04-05T00:28:48;100433.63;;;-0.53;50.21
19594;BME280;9944;48.240;16.478;2023-04-05T00:32:51;100434.53;;;-0.52;50.62
19594;BME280;9944;48.240;16.478;2023-04-05T00:36:55;100428.59;;;-0.50;50.59
19594;BME280;9944;48.240;16.478;2023-04-05T00:40:59;100421.66;;;-0.51;50.66
19594;BME280;9944;48.240;16.478;2023-04-05T00:45:03;100433.50;;;-0.56;50.50
19594;BME280;9944;48.240;16.478;2023-04-05T00:49:06;100429.03;;;-0.58;50.57
19594;BME280;9944;48.240;16.478;2023-04-05T00:53:09;100433.91;;;-0.64;50.53
19594;BME280;9944;48.240;16.478;2023-04-05T00:57:14;100432.03;;;-0.67;50.90
19594;BME280;9944;48.240;16.478;2023-04-05T01:01:19;100432.78;;;-0.70;50.93
19594;BME280;9944;48.240;16.478;2023-04-05T01:05:32;100429.94;;;-0.74;50.76
19594;BME280;9944;48.240;16.478;2023-04-05T01:09:44;100430.72;;;-0.75;50.99
19594;BME280;9944;48.240;16.478;2023-04-05T01:13:57;100432.38;;;-0.77;51.08
19594;BME280;9944;48.240;16.478;2023-04-05T01:18:00;100427.00;;;-0.80;51.09
19594;BME280;9944;48.240;16.478;2023-04-05T01:27:06;100423.38;;;-0.84;51.14
19594;BME280;9944;48.240;16.478;2023-04-05T01:31:19;100423.16;;;-0.89;51.10
19594;BME280;9944;48.240;16.478;2023-04-05T01:35:29;100422.25;;;-0.89;51.18
19594;BME280;9944;48.240;16.478;2023-04-05T01:39:37;100410.81;;;-0.93;51.35
19594;BME280;9944;48.240;16.478;2023-04-05T01:43:40;100419.25;;;-0.97;51.31
19594;BME280;9944;48.240;16.478;2023-04-05T01:47:45;100417.31;;;-1.01;51.50
19594;BME280;9944;48.240;16.478;2023-04-05T01:51:52;100422.09;;;-1.09;51.55
19594;BME280;9944;48.240;16.478;2023-04-05T01:55:58;100421.91;;;-1.12;51.81
19594;BME280;9944;48.240;16.478;2023-04-05T02:00:03;100428.81;;;-1.12;51.66
19594;BME280;9944;48.240;16.478;2023-04-05T02:04:14;100426.88;;;-1.16;51.71
19594;BME280;9944;48.240;16.478;2023-04-05T02:08:17;100432.84;;;-1.17;51.91
19594;BME280;9944;48.240;16.478;2023-04-05T02:12:22;100427.50;;;-1.20;51.90
19594;BME280;9944;48.240;16.478;2023-04-05T02:16:25;100422.22;;;-1.22;51.95
19594;BME280;9944;48.240;16.478;2023-04-05T02:20:30;100423.84;;;-1.24;51.96
19594;BME280;9944;48.240;16.478;2023-04-05T02:24:33;100415.84;;;-1.29;51.99
19594;BME280;9944;48.240;16.478;2023-04-05T02:28:36;100414.81;;;-1.32;51.86
19594;BME280;9944;48.240;16.478;2023-04-05T02:32:40;100412.84;;;-1.36;52.07
19594;BME280;9944;48.240;16.478;2023-04-05T02:36:45;100411.00;;;-1.39;52.34
19594;BME280;9944;48.240;16.478;2023-04-05T02:40:48;100406.44;;;-1.43;52.16
19594;BME280;9944;48.240;16.478;2023-04-05T02:44:52;100409.84;;;-1.44;52.38
19594;BME280;9944;48.240;16.478;2023-04-05T02:48:56;100408.78;;;-1.48;52.27
19594;BME280;9944;48.240;16.478;2023-04-05T02:53:03;100406.19;;;-1.48;52.42
19594;BME280;9944;48.240;16.478;2023-04-05T02:57:06;100398.44;;;-1.48;52.46
19594;BME280;9944;48.240;16.478;2023-04-05T03:01:21;100401.81;;;-1.49;52.64
19594;BME280;9944;48.240;16.478;2023-04-05T03:05:25;100403.63;;;-1.48;52.56
19594;BME280;9944;48.240;16.478;2023-04-05T03:09:30;100399.16;;;-1.50;52.63
19594;BME280;9944;48.240;16.478;2023-04-05T03:13:39;100400.75;;;-1.52;52.62
19594;BME280;9944;48.240;16.478;2023-04-05T03:17:50;100401.56;;;-1.53;52.87
19594;BME280;9944;48.240;16.478;2023-04-05T03:21:54;100404.88;;;-1.56;53.25
19594;BME280;9944;48.240;16.478;2023-04-05T03:26:07;100402.22;;;-1.57;53.19
19594;BME280;9944;48.240;16.478;2023-04-05T03:30:14;100395.09;;;-1.61;52.96
19594;BME280;9944;48.240;16.478;2023-04-05T03:34:25;100397.69;;;-1.61;53.09
19594;BME280;9944;48.240;16.478;2023-04-05T03:38:35;100401.94;;;-1.62;53.04
19594;BME280;9944;48.240;16.478;2023-04-05T03:42:55;100404.72;;;-1.59;53.07
19594;BME280;9944;48.240;16.478;2023-04-05T03:46:58;100408.03;;;-1.61;53.19
19594;BME280;9944;48.240;16.478;2023-04-05T03:51:04;100414.00;;;-1.63;53.34
19594;BME280;9944;48.240;16.478;2023-04-05T03:55:08;100417.56;;;-1.60;53.42
19594;BME280;9944;48.240;16.478;2023-04-05T03:59:13;100408.13;;;-1.60;53.41
19594;BME280;9944;48.240;16.478;2023-04-05T04:03:17;100408.03;;;-1.61;53.53
19594;BME280;9944;48.240;16.478;2023-04-05T04:07:23;100402.50;;;-1.68;53.38
19594;BME280;9944;48.240;16.478;2023-04-05T04:11:27;100397.25;;;-1.69;53.36
19594;BME280;9944;48.240;16.478;2023-04-05T04:15:31;100391.19;;;-1.70;53.44
19594;BME280;9944;48.240;16.478;2023-04-05T04:19:50;100403.34;;;-1.69;53.56
19594;BME280;9944;48.240;16.478;2023-04-05T04:24:15;100399.75;;;-1.71;53.42
19594;BME280;9944;48.240;16.478;2023-04-05T04:28:39;100392.63;;;-1.75;53.48
19594;BME280;9944;48.240;16.478;2023-04-05T04:33:17;100393.38;;;-1.77;53.42
19594;BME280;9944;48.240;16.478;2023-04-05T04:37:41;100402.63;;;-1.81;53.51
19594;BME280;9944;48.240;16.478;2023-04-05T04:42:10;100403.53;;;-1.80;53.59
19594;BME280;9944;48.240;16.478;2023-04-05T04:46:36;100399.25;;;-1.80;53.48
19594;BME280;9944;48.240;16.478;2023-04-05T04:51:23;100394.84;;;-1.81;53.65
19594;BME280;9944;48.240;16.478;2023-04-05T04:55:27;100401.91;;;-1.78;53.84
19594;BME280;9944;48.240;16.478;2023-04-05T04:59:30;100398.44;;;-1.79;53.44
19594;BME280;9944;48.240;16.478;2023-04-05T05:03:37;100400.94;;;-1.80;53.60
19594;BME280;9944;48.240;16.478;2023-04-05T05:07:42;100399.34;;;-1.78;53.86
19594;BME280;9944;48.240;16.478;2023-04-05T05:11:45;100394.44;;;-1.74;53.79
19594;BME280;9944;48.240;16.478;2023-04-05T05:15:49;100394.47;;;-1.72;53.92
19594;BME280;9944;48.240;16.478;2023-04-05T05:19:52;100402.09;;;-1.75;53.71
19594;BME280;9944;48.240;16.478;2023-04-05T05:23:58;100401.28;;;-1.74;53.82
19594;BME280;9944;48.240;16.478;2023-04-05T05:28:01;100397.00;;;-1.74;53.86
19594;BME280;9944;48.240;16.478;2023-04-05T05:32:05;100396.00;;;-1.76;54.00
19594;BME280;9944;48.240;16.478;2023-04-05T05:36:10;100394.44;;;-1.74;53.98
19594;BME280;9944;48.240;16.478;2023-04-05T05:40:15;100392.97;;;-1.69;54.17
19594;BME280;9944;48.240;16.478;2023-04-05T05:44:18;100391.53;;;-1.64;54.34
19594;BME280;9944;48.240;16.478;2023-04-05T05:48:21;100393.47;;;-1.59;55.69
19594;BME280;9944;48.240;16.478;2023-04-05T05:52:24;100395.97;;;-1.45;54.87
19594;BME280;9944;48.240;16.478;2023-04-05T05:56:29;100398.91;;;-1.38;54.47
19594;BME280;9944;48.240;16.478;2023-04-05T06:00:32;100403.72;;;-1.30;54.47
19594;BME280;9944;48.240;16.478;2023-04-05T06:04:36;100402.44;;;-1.21;54.42
19594;BME280;9944;48.240;16.478;2023-04-05T06:08:39;100401.28;;;-1.10;54.35
19594;BME280;9944;48.240;16.478;2023-04-05T06:12:44;100396.91;;;-0.95;54.07
19594;BME280;9944;48.240;16.478;2023-04-05T06:16:47;100402.88;;;-0.79;53.96
19594;BME280;9944;48.240;16.478;2023-04-05T06:20:50;100401.25;;;-0.61;53.40
19594;BME280;9944;48.240;16.478;2023-04-05T06:24:53;100410.38;;;-0.51;53.28
19594;BME280;9944;48.240;16.478;2023-04-05T06:28:57;100409.94;;;-0.42;53.08
19594;BME280;9944;48.240;16.478;2023-04-05T06:33:01;100413.81;;;-0.34;53.01
19594;BME280;9944;48.240;16.478;2023-04-05T06:37:04;100406.34;;;-0.28;52.55
19594;BME280;9944;48.240;16.478;2023-04-05T06:41:07;100414.22;;;-0.26;52.61
19594;BME280;9944;48.240;16.478;2023-04-05T06:45:12;100416.22;;;-0.21;52.79
19594;BME280;9944;48.240;16.478;2023-04-05T06:49:15;100411.47;;;-0.12;52.28
19594;BME280;9944;48.240;16.478;2023-04-05T06:53:18;100405.59;;;-0.07;52.32
19594;BME280;9944;48.240;16.478;2023-04-05T06:57:21;100406.72;;;-0.02;52.50
19594;BME280;9944;48.240;16.478;2023-04-05T07:01:25;100407.03;;;0.04;51.98
19594;BME280;9944;48.240;16.478;2023-04-05T07:05:29;100419.41;;;0.10;51.96
19594;BME280;9944;48.240;16.478;2023-04-05T07:09:32;100411.09;;;0.17;51.88
19594;BME280;9944;48.240;16.478;2023-04-05T07:13:36;100414.28;;;0.29;51.81
19594;BME280;9944;48.240;16.478;2023-04-05T07:17:40;100413.97;;;0.41;51.75
19594;BME280;9944;48.240;16.478;2023-04-05T07:21:43;100412.78;;;0.52;51.10
19594;BME280;9944;48.240;16.478;2023-04-05T07:25:46;100412.47;;;0.64;51.10
19594;BME280;9944;48.240;16.478;2023-04-05T07:29:49;100402.75;;;0.79;50.92
19594;BME280;9944;48.240;16.478;2023-04-05T07:33:54;100406.38;;;1.22;51.35
19594;BME280;9944;48.240;16.478;2023-04-05T07:37:58;100396.88;;;1.63;50.72
19594;BME280;9944;48.240;16.478;2023-04-05T07:42:02;100400.63;;;1.91;50.28
19594;BME280;9944;48.240;16.478;2023-04-05T07:46:05;100407.47;;;2.10;50.05
19594;BME280;9944;48.240;16.478;2023-04-05T07:50:10;100400.25;;;2.25;48.89
19594;BME280;9944;48.240;16.478;2023-04-05T07:54:16;100406.47;;;2.29;48.61
19594;BME280;9944;48.240;16.478;2023-04-05T07:58:19;100400.88;;;2.20;48.19
19594;BME280;9944;48.240;16.478;2023-04-05T08:02:23;100404.44;;;2.22;48.24
19594;BME280;9944;48.240;16.478;2023-04-05T08:06:28;100395.00;;;2.24;48.11
19594;BME280;9944;48.240;16.478;2023-04-05T08:10:31;100392.97;;;2.39;48.33
19594;BME280;9944;48.240;16.478;2023-04-05T08:14:34;100383.91;;;2.52;47.16
19594;BME280;9944;48.240;16.478;2023-04-05T08:18:37;100375.09;;;2.48;47.65
19594;BME280;9944;48.240;16.478;2023-04-05T08:22:42;100373.94;;;2.64;47.71
19594;BME280;9944;48.240;16.478;2023-04-05T08:26:45;100360.63;;;2.79;49.00
19594;BME280;9944;48.240;16.478;2023-04-05T08:30:52;100363.72;;;2.93;48.50
19594;BME280;9944;48.240;16.478;2023-04-05T08:34:55;100366.84;;;3.08;48.26
19594;BME280;9944;48.240;16.478;2023-04-05T08:39:00;100355.44;;;3.05;47.68
19594;BME280;9944;48.240;16.478;2023-04-05T08:43:09;100351.31;;;3.12;47.54
19594;BME280;9944;48.240;16.478;2023-04-05T08:47:17;100354.00;;;3.13;47.35
19594;BME280;9944;48.240;16.478;2023-04-05T08:51:22;100348.78;;;3.13;47.70
19594;BME280;9944;48.240;16.478;2023-04-05T08:55:27;100340.53;;;3.26;47.73
19594;BME280;9944;48.240;16.478;2023-04-05T08:59:31;100338.13;;;3.33;47.28
19594;BME280;9944;48.240;16.478;2023-04-05T09:03:36;100346.72;;;3.54;47.49
19594;BME280;9944;48.240;16.478;2023-04-05T09:07:43;100334.00;;;3.65;47.49
19594;BME280;9944;48.240;16.478;2023-04-05T09:11:50;100330.41;;;3.61;46.20
19594;BME280;9944;48.240;16.478;2023-04-05T09:15:53;100323.50;;;3.63;47.61
19594;BME280;9944;48.240;16.478;2023-04-05T09:19:57;100322.88;;;3.71;46.77
19594;BME280;9944;48.240;16.478;2023-04-05T09:24:00;100316.19;;;3.79;46.43
19594;BME280;9944;48.240;16.478;2023-04-05T09:28:05;100315.25;;;3.77;46.80
19594;BME280;9944;48.240;16.478;2023-04-05T09:32:10;100316.56;;;3.91;46.40
19594;BME280;9944;48.240;16.478;2023-04-05T09:36:17;100308.47;;;4.11;46.77
19594;BME280;9944;48.240;16.478;2023-04-05T09:40:21;100303.00;;;4.32;45.44
19594;BME280;9944;48.240;16.478;2023-04-05T09:44:26;100290.53;;;4.52;46.08
19594;BME280;9944;48.240;16.478;2023-04-05T09:48:49;100291.06;;;4.70;45.76
19594;BME280;9944;48.240;16.478;2023-04-05T09:53:04;100281.91;;;4.86;44.73
19594;BME280;9944;48.240;16.478;2023-04-05T09:57:09;100286.09;;;4.79;43.94
19594;BME280;9944;48.240;16.478;2023-04-05T10:01:14;100282.66;;;4.81;43.29
19594;BME280;9944;48.240;16.478;2023-04-05T10:05:18;100279.75;;;4.71;41.92
19594;BME280;9944;48.240;16.478;2023-04-05T10:09:25;100275.03;;;4.58;41.53
19594;BME280;9944;48.240;16.478;2023-04-05T10:13:30;100266.34;;;4.59;42.22
19594;BME280;9944;48.240;16.478;2023-04-05T10:17:38;100259.00;;;4.77;42.67
19594;BME280;9944;48.240;16.478;2023-04-05T10:21:46;100256.88;;;4.96;42.19
19594;BME280;9944;48.240;16.478;2023-04-05T10:25:59;100259.44;;;4.93;40.13
19594;BME280;9944;48.240;16.478;2023-04-05T10:30:07;100250.63;;;4.91;41.01
19594;BME280;9944;48.240;16.478;2023-04-05T10:34:18;100253.19;;;4.88;41.60
19594;BME280;9944;48.240;16.478;2023-04-05T10:38:24;100238.22;;;5.15;41.62
19594;BME280;9944;48.240;16.478;2023-04-05T10:42:40;100245.63;;;5.33;40.23
19594;BME280;9944;48.240;16.478;2023-04-05T10:46:45;100245.38;;;5.23;39.62
19594;BME280;9944;48.240;16.478;2023-04-05T10:50:49;100241.75;;;5.18;40.19
19594;BME280;9944;48.240;16.478;2023-04-05T10:54:54;100242.63;;;5.18;40.28
19594;BME280;9944;48.240;16.478;2023-04-05T10:59:00;100246.16;;;5.20;40.41
19594;BME280;9944;48.240;16.478;2023-04-05T11:03:04;100242.25;;;5.39;39.70
19594;BME280;9944;48.240;16.478;2023-04-05T11:07:13;100220.94;;;5.59;39.14
19594;BME280;9944;48.240;16.478;2023-04-05T11:11:17;100214.47;;;5.82;38.86
19594;BME280;9944;48.240;16.478;2023-04-05T11:15:31;100208.66;;;5.96;40.18
19594;BME280;9944;48.240;16.478;2023-04-05T11:19:47;100208.06;;;6.09;39.93
19594;BME280;9944;48.240;16.478;2023-04-05T11:24:04;100210.88;;;6.18;40.02
19594;BME280;9944;48.240;16.478;2023-04-05T11:28:08;100205.59;;;6.17;39.66
19594;BME280;9944;48.240;16.478;2023-04-05T11:32:37;100210.41;;;5.97;38.57
19594;BME280;9944;48.240;16.478;2023-04-05T11:36:42;100210.41;;;5.97;38.83
19594;BME280;9944;48.240;16.478;2023-04-05T11:40:48;100201.69;;;5.98;39.85
19594;BME280;9944;48.240;16.478;2023-04-05T11:44:52;100201.75;;;5.99;39.24
19594;BME280;9944;48.240;16.478;2023-04-05T11:48:55;100197.59;;;6.09;39.16
19594;BME280;9944;48.240;16.478;2023-04-05T11:53:09;100200.31;;;6.15;39.42
19594;BME280;9944;48.240;16.478;2023-04-05T11:57:18;100187.28;;;6.18;39.60
19594;BME280;9944;48.240;16.478;2023-04-05T12:01:22;100185.97;;;6.40;39.10
19594;BME280;9944;48.240;16.478;2023-04-05T12:05:25;100193.13;;;6.47;38.40
19594;BME280;9944;48.240;16.478;2023-04-05T12:09:28;100180.09;;;6.52;38.85
19594;BME280;9944;48.240;16.478;2023-04-05T12:13:33;100177.56;;;6.57;38.30
19594;BME280;9944;48.240;16.478;2023-04-05T12:17:41;100176.03;;;6.68;38.95
19594;BME280;9944;48.240;16.478;2023-04-05T12:21:45;100171.81;;;6.78;38.96
19594;BME280;9944;48.240;16.478;2023-04-05T12:25:48;100165.47;;;7.15;38.82
19594;BME280;9944;48.240;16.478;2023-04-05T12:30:06;100153.44;;;7.31;37.10
19594;BME280;9944;48.240;16.478;2023-04-05T12:34:11;100153.56;;;7.37;37.35
19594;BME280;9944;48.240;16.478;2023-04-05T12:38:14;100151.59;;;7.24;37.09
19594;BME280;9944;48.240;16.478;2023-04-05T12:42:18;100145.22;;;7.08;36.88
19594;BME280;9944;48.240;16.478;2023-04-05T12:46:37;100152.97;;;7.00;37.61
19594;BME280;9944;48.240;16.478;2023-04-05T12:50:42;100141.56;;;6.98;37.87
19594;BME280;9944;48.240;16.478;2023-04-05T12:54:52;100139.00;;;7.01;37.58
19594;BME280;9944;48.240;16.478;2023-04-05T12:58:55;100135.34;;;6.93;37.43
19594;BME280;9944;48.240;16.478;2023-04-05T13:03:00;100136.19;;;6.92;37.24
19594;BME280;9944;48.240;16.478;2023-04-05T13:07:03;100140.44;;;6.84;37.05
19594;BME280;9944;48.240;16.478;2023-04-05T13:11:07;100135.84;;;6.71;37.45
19594;BME280;9944;48.240;16.478;2023-04-05T13:15:11;100137.66;;;6.75;36.83
19594;BME280;9944;48.240;16.478;2023-04-05T13:19:16;100136.13;;;6.88;37.08
19594;BME280;9944;48.240;16.478;2023-04-05T13:23:19;100132.06;;;7.07;37.58
19594;BME280;9944;48.240;16.478;2023-04-05T13:27:22;100132.22;;;7.16;36.70
19594;BME280;9944;48.240;16.478;2023-04-05T13:31:26;100136.25;;;6.95;36.52
19594;BME280;9944;48.240;16.478;2023-04-05T13:35:31;100135.16;;;6.81;36.35
19594;BME280;9944;48.240;16.478;2023-04-05T13:39:34;100136.03;;;6.81;36.81
19594;BME280;9944;48.240;16.478;2023-04-05T13:43:37;100138.63;;;6.80;36.50
19594;BME280;9944;48.240;16.478;2023-04-05T13:47:40;100117.81;;;6.89;37.02
19594;BME280;9944;48.240;16.478;2023-04-05T13:51:45;100121.22;;;6.85;36.89
19594;BME280;9944;48.240;16.478;2023-04-05T13:55:48;100115.13;;;6.86;37.16
19594;BME280;9944;48.240;16.478;2023-04-05T13:59:51;100110.91;;;6.97;37.16
19594;BME280;9944;48.240;16.478;2023-04-05T14:03:54;100116.09;;;6.93;36.89
19594;BME280;9944;48.240;16.478;2023-04-05T14:07:59;100116.06;;;6.91;36.63
19594;BME280;9944;48.240;16.478;2023-04-05T14:12:03;100119.47;;;6.84;36.69
19594;BME280;9944;48.240;16.478;2023-04-05T14:16:07;100112.50;;;6.86;36.17
19594;BME280;9944;48.240;16.478;2023-04-05T14:20:10;100115.25;;;6.95;36.59
19594;BME280;9944;48.240;16.478;2023-04-05T14:24:15;100115.22;;;6.94;36.77
19594;BME280;9944;48.240;16.478;2023-04-05T14:28:18;100120.44;;;6.92;36.36
19594;BME280;9944;48.240;16.478;2023-04-05T14:32:22;100109.97;;;6.91;36.58
19594;BME280;9944;48.240;16.478;2023-04-05T14:36:26;100119.47;;;6.84;35.84
19594;BME280;9944;48.240;16.478;2023-04-05T14:40:30;100108.78;;;6.75;35.93
19594;BME280;9944;48.240;16.478;2023-04-05T14:44:34;100118.41;;;6.74;36.25
19594;BME280;9944;48.240;16.478;2023-04-05T14:48:37;100119.13;;;6.65;36.20
19594;BME280;9944;48.240;16.478;2023-04-05T14:52:40;100120.75;;;6.57;37.82
19594;BME280;9944;48.240;16.478;2023-04-05T14:56:45;100127.78;;;6.60;37.11
19594;BME280;9944;48.240;16.478;2023-04-05T15:00:49;100132.88;;;6.51;37.05
19594;BME280;9944;48.240;16.478;2023-04-05T15:04:53;100133.72;;;6.50;37.44
19594;BME280;9944;48.240;16.478;2023-04-05T15:08:56;100122.31;;;6.46;36.58
19594;BME280;9944;48.240;16.478;2023-04-05T15:13:01;100126.53;;;6.41;36.60
19594;BME280;9944;48.240;16.478;2023-04-05T15:17:07;100127.34;;;6.37;37.04
19594;BME280;9944;48.240;16.478;2023-04-05T15:21:11;100123.84;;;6.38;37.45
19594;BME280;9944;48.240;16.478;2023-04-05T15:25:15;100124.78;;;6.41;37.37
19594;BME280;9944;48.240;16.478;2023-04-05T15:29:19;100130.84;;;6.37;37.18
19594;BME280;9944;48.240;16.478;2023-04-05T15:33:23;100133.34;;;6.31;36.91
19594;BME280;9944;48.240;16.478;2023-04-05T15:37:26;100132.47;;;6.30;36.47
19594;BME280;9944;48.240;16.478;2023-04-05T15:41:31;100128.94;;;6.28;36.25
19594;BME280;9944;48.240;16.478;2023-04-05T15:45:36;100126.16;;;6.21;36.93
19594;BME280;9944;48.240;16.478;2023-04-05T15:49:39;100134.00;;;6.21;37.33
19594;BME280;9944;48.240;16.478;2023-04-05T15:53:44;100135.69;;;6.17;36.90
19594;BME280;9944;48.240;16.478;2023-04-05T15:57:47;100133.06;;;6.17;37.36
19594;BME280;9944;48.240;16.478;2023-04-05T16:01:56;100133.88;;;6.13;37.51
19594;BME280;9944;48.240;16.478;2023-04-05T16:05:59;100132.88;;;6.06;37.49
19594;BME280;9944;48.240;16.478;2023-04-05T16:10:04;100135.34;;;5.99;38.21
19594;BME280;9944;48.240;16.478;2023-04-05T16:14:07;100149.22;;;5.95;38.02
19594;BME280;9944;48.240;16.478;2023-04-05T16:18:14;100140.53;;;5.96;38.50
19594;BME280;9944;48.240;16.478;2023-04-05T16:22:20;100147.66;;;6.03;38.63
19594;BME280;9944;48.240;16.478;2023-04-05T16:26:23;100140.59;;;5.99;38.01
19594;BME280;9944;48.240;16.478;2023-04-05T16:30:27;100138.75;;;5.95;38.12
19594;BME280;9944;48.240;16.478;2023-04-05T16:34:31;100140.34;;;5.88;38.58
19594;BME280;9944;48.240;16.478;2023-04-05T16:38:35;100137.72;;;5.88;39.04
19594;BME280;9944;48.240;16.478;2023-04-05T16:42:38;100143.88;;;5.88;39.39
19594;BME280;9944;48.240;16.478;2023-04-05T16:46:41;100152.59;;;5.89;39.19
19594;BME280;9944;48.240;16.478;2023-04-05T16:50:48;100148.19;;;5.86;38.75
19594;BME280;9944;48.240;16.478;2023-04-05T16:54:51;100153.34;;;5.82;39.28
19594;BME280;9944;48.240;16.478;2023-04-05T16:58:54;100161.13;;;5.79;39.66
19594;BME280;9944;48.240;16.478;2023-04-05T17:02:58;100155.84;;;5.77;39.73
19594;BME280;9944;48.240;16.478;2023-04-05T17:07:03;100154.09;;;5.76;39.97
19594;BME280;9944;48.240;16.478;2023-04-05T17:11:06;100153.22;;;5.77;40.75
19594;BME280;9944;48.240;16.478;2023-04-05T17:15:10;100157.47;;;5.72;40.63
19594;BME280;9944;48.240;16.478;2023-04-05T17:19:13;100163.63;;;5.74;41.02
19594;BME280;9944;48.240;16.478;2023-04-05T17:23:18;100160.91;;;5.68;40.88
19594;BME280;9944;48.240;16.478;2023-04-05T17:27:21;100165.22;;;5.66;40.64
19594;BME280;9944;48.240;16.478;2023-04-05T17:31:26;100164.31;;;5.64;40.91
19594;BME280;9944;48.240;16.478;2023-04-05T17:35:30;100174.78;;;5.64;41.02
19594;BME280;9944;48.240;16.478;2023-04-05T17:39:35;100169.47;;;5.61;41.26
19594;BME280;9944;48.240;16.478;2023-04-05T17:43:38;100173.72;;;5.56;41.73
19594;BME280;9944;48.240;16.478;2023-04-05T17:47:42;100176.34;;;5.56;41.08
19594;BME280;9944;48.240;16.478;2023-04-05T17:51:51;100177.19;;;5.54;40.75
19594;BME280;9944;48.240;16.478;2023-04-05T17:55:58;100181.56;;;5.56;41.08
19594;BME280;9944;48.240;16.478;2023-04-05T18:00:02;100181.41;;;5.49;41.65
19594;BME280;9944;48.240;16.478;2023-04-05T18:04:06;100184.00;;;5.48;41.76
19594;BME280;9944;48.240;16.478;2023-04-05T18:08:13;100190.16;;;5.48;41.60
19594;BME280;9944;48.240;16.478;2023-04-05T18:12:18;100194.44;;;5.46;41.51
19594;BME280;9944;48.240;16.478;2023-04-05T18:16:22;100201.38;;;5.44;41.52
19594;BME280;9944;48.240;16.478;2023-04-05T18:20:26;100208.19;;;5.36;41.53
19594;BME280;9944;48.240;16.478;2023-04-05T18:24:29;100201.13;;;5.33;41.46
19594;BME280;9944;48.240;16.478;2023-04-05T18:28:34;100213.16;;;5.27;41.57
19594;BME280;9944;48.240;16.478;2023-04-05T18:32:37;100212.19;;;5.22;41.72
19594;BME280;9944;48.240;16.478;2023-04-05T18:36:41;100219.88;;;5.15;41.87
19594;BME280;9944;48.240;16.478;2023-04-05T18:40:46;100222.28;;;5.08;42.29
19594;BME280;9944;48.240;16.478;2023-04-05T18:44:50;100227.44;;;5.05;42.65
19594;BME280;9944;48.240;16.478;2023-04-05T18:48:54;100227.31;;;4.98;42.67
19594;BME280;9944;48.240;16.478;2023-04-05T18:52:58;100228.88;;;4.92;42.79
19594;BME280;9944;48.240;16.478;2023-04-05T18:57:01;100231.34;;;4.87;42.85
19594;BME280;9944;48.240;16.478;2023-04-05T19:01:06;100235.72;;;4.87;43.01
19594;BME280;9944;48.240;16.478;2023-04-05T19:05:13;100233.91;;;4.84;43.22
19594;BME280;9944;48.240;16.478;2023-04-05T19:09:17;100225.97;;;4.81;43.25
19594;BME280;9944;48.240;16.478;2023-04-05T19:13:21;100233.69;;;4.76;43.24
19594;BME280;9944;48.240;16.478;2023-04-05T19:17:25;100231.81;;;4.71;43.12
19594;BME280;9944;48.240;16.478;2023-04-05T19:21:28;100236.91;;;4.66;43.35
19594;BME280;9944;48.240;16.478;2023-04-05T19:25:32;100236.84;;;4.63;43.31
19594;BME280;9944;48.240;16.478;2023-04-05T19:29:35;100237.72;;;4.64;43.44
19594;BME280;9944;48.240;16.478;2023-04-05T19:33:39;100235.16;;;4.65;43.85
19594;BME280;9944;48.240;16.478;2023-04-05T19:37:43;100240.38;;;4.65;43.81
19594;BME280;9944;48.240;16.478;2023-04-05T19:41:46;100236.03;;;4.66;43.64
19594;BME280;9944;48.240;16.478;2023-04-05T19:45:55;100239.47;;;4.65;43.44
19594;BME280;9944;48.240;16.478;2023-04-05T19:50:00;100241.97;;;4.60;44.01
19594;BME280;9944;48.240;16.478;2023-04-05T19:54:07;100235.84;;;4.59;44.15
19594;BME280;9944;48.240;16.478;2023-04-05T19:58:25;100246.94;;;4.51;44.19
19594;BME280;9944;48.240;16.478;2023-04-05T20:02:34;100241.47;;;4.41;44.21
19594;BME280;9944;48.240;16.478;2023-04-05T20:06:40;100237.72;;;4.33;44.56
19594;BME280;9944;48.240;16.478;2023-04-05T20:10:44;100233.22;;;4.28;45.02
19594;BME280;9944;48.240;16.478;2023-04-05T20:14:49;100228.81;;;4.25;45.14
19594;BME280;9944;48.240;16.478;2023-04-05T20:18:56;100227.78;;;4.20;45.45
19594;BME280;9944;48.240;16.478;2023-04-05T20:23:01;100232.91;;;4.17;45.81
19594;BME280;9944;48.240;16.478;2023-04-05T20:27:06;100227.59;;;4.14;46.05
19594;BME280;9944;48.240;16.478;2023-04-05T20:31:17;100218.69;;;4.07;46.19
19594;BME280;9944;48.240;16.478;2023-04-05T20:35:29;100212.50;;;4.03;46.09
19594;BME280;9944;48.240;16.478;2023-04-05T20:39:35;100217.63;;;4.00;46.20
19594;BME280;9944;48.240;16.478;2023-04-05T20:43:39;100216.50;;;3.92;46.02
19594;BME280;9944;48.240;16.478;2023-04-05T20:48:02;100215.38;;;3.84;46.08
19594;BME280;9944;48.240;16.478;2023-04-05T20:53:57;100220.00;;;3.65;46.04
19594;BME280;9944;48.240;16.478;2023-04-05T20:59:23;100215.44;;;3.58;46.33
19594;BME280;9944;48.240;16.478;2023-04-05T21:03:27;100220.66;;;3.58;46.45
19594;BME280;9944;48.240;16.478;2023-04-05T21:07:30;100219.75;;;3.56;46.44
19594;BME280;9944;48.240;16.478;2023-04-05T21:11:35;100216.09;;;3.51;46.58
19594;BME280;9944;48.240;16.478;2023-04-05T21:15:40;100212.50;;;3.47;46.81
19594;BME280;9944;48.240;16.478;2023-04-05T21:19:43;100219.34;;;3.44;46.91
19594;BME280;9944;48.240;16.478;2023-04-05T21:23:46;100220.13;;;3.41;46.93
19594;BME280;9944;48.240;16.478;2023-04-05T21:27:50;100227.84;;;3.37;47.28
19594;BME280;9944;48.240;16.478;2023-04-05T21:31:55;100225.94;;;3.33;47.35
19594;BME280;9944;48.240;16.478;2023-04-05T21:35:59;100225.88;;;3.30;47.50
19594;BME280;9944;48.240;16.478;2023-04-05T21:40:04;100216.16;;;3.25;47.43
19594;BME280;9944;48.240;16.478;2023-04-05T21:44:08;100216.00;;;3.21;47.48